createdAt,value
2023-11-07T00:00:08.697Z,7.36
2023-11-07T00:02:36.945Z,7.41
2023-11-07T00:05:05.007Z,7.41
2023-11-07T00:07:32.523Z,7.31
2023-11-07T00:09:59.636Z,7.30
2023-11-07T00:12:27.141Z,7.25
2023-11-07T00:14:54.329Z,7.22
2023-11-07T00:17:22.493Z,7.10
2023-11-07T00:19:49.976Z,7.09
2023-11-07T00:22:17.363Z,7.08
2023-11-07T00:24:45.033Z,7.15
2023-11-07T00:27:12.479Z,7.15
2023-11-07T00:29:39.585Z,7.13
2023-11-07T00:32:07.852Z,7.13
2023-11-07T00:34:35.065Z,7.17
2023-11-07T00:37:02.504Z,7.17
2023-11-07T00:39:29.536Z,7.15
2023-11-07T00:41:57.883Z,7.12
2023-11-07T00:44:25.361Z,7.10
2023-11-07T00:46:52.745Z,7.01
2023-11-07T00:49:19.856Z,6.91
2023-11-07T00:51:48.320Z,6.89
2023-11-07T00:54:15.523Z,6.85
2023-11-07T00:56:43.053Z,6.70
2023-11-07T00:59:10.115Z,6.78
2023-11-07T01:01:38.073Z,6.75
2023-11-07T01:04:05.443Z,6.75
2023-11-07T01:06:33.688Z,6.72
2023-11-07T01:09:01.513Z,6.56
2023-11-07T01:11:28.955Z,6.57
2023-11-07T01:13:56.030Z,6.50
2023-11-07T01:16:23.550Z,6.36
2023-11-07T01:18:50.810Z,6.42
2023-11-07T01:21:18.557Z,6.39
2023-11-07T01:23:45.752Z,6.38
2023-11-07T01:26:14.133Z,6.36
2023-11-07T01:28:41.228Z,6.33
2023-11-07T01:31:08.564Z,6.34
2023-11-07T01:33:40.981Z,6.31
2023-11-07T01:36:16.284Z,6.34
2023-11-07T01:38:52.635Z,6.33
2023-11-07T01:41:30.764Z,6.21
2023-11-07T01:46:47.239Z,6.35
2023-11-07T01:49:26.790Z,6.31
2023-11-07T01:52:01.131Z,6.38
2023-11-07T01:54:35.763Z,6.36
2023-11-07T01:57:05.614Z,6.35
2023-11-07T02:00:01.676Z,6.30
2023-11-07T02:02:41.291Z,6.26
2023-11-07T02:05:22.564Z,6.13
2023-11-07T02:08:12.369Z,6.21
2023-11-07T02:10:41.868Z,6.12
2023-11-07T02:13:14.516Z,6.09
2023-11-07T02:15:49.598Z,6.08
2023-11-07T02:18:17.772Z,6.19
2023-11-07T02:20:48.097Z,6.23
2023-11-07T02:23:31.804Z,6.28
2023-11-07T02:25:59.662Z,6.25
2023-11-07T02:28:34.768Z,6.31
2023-11-07T02:31:05.812Z,6.27
2023-11-07T02:33:39.976Z,6.29
2023-11-07T02:36:09.096Z,6.30
2023-11-07T02:38:40.915Z,6.20
2023-11-07T02:41:12.941Z,6.08
2023-11-07T02:43:47.032Z,6.09
2023-11-07T02:46:19.725Z,5.85
2023-11-07T02:48:55.667Z,5.98
2023-11-07T02:51:24.447Z,5.97
2023-11-07T02:53:52.609Z,5.90
2023-11-07T02:56:29.498Z,5.93
2023-11-07T02:59:03.924Z,5.84
2023-11-07T03:01:36.229Z,5.77
2023-11-07T03:04:04.415Z,5.77
2023-11-07T03:06:34.648Z,5.77
2023-11-07T03:09:10.139Z,5.53
2023-11-07T03:11:38.021Z,5.56
2023-11-07T03:14:07.410Z,5.52
2023-11-07T03:17:03.691Z,5.52
2023-11-07T03:19:35.069Z,5.51
2023-11-07T03:24:48.796Z,5.47
2023-11-07T03:30:12.236Z,5.44
2023-11-07T03:32:49.534Z,5.30
2023-11-07T03:35:19.595Z,5.26
2023-11-07T03:37:50.969Z,5.26
2023-11-07T03:43:08.682Z,5.26
2023-11-07T03:45:43.279Z,5.08
2023-11-07T03:48:26.041Z,5.15
2023-11-07T03:51:00.850Z,5.11
2023-11-07T03:53:33.040Z,5.07
2023-11-07T03:56:34.533Z,5.13
2023-11-07T03:59:04.785Z,5.14
2023-11-07T04:01:40.908Z,5.17
2023-11-07T04:04:10.877Z,5.18
2023-11-07T04:06:41.120Z,5.22
2023-11-07T04:09:11.083Z,5.26
2023-11-07T04:11:45.114Z,5.24
2023-11-07T04:14:14.058Z,5.23
2023-11-07T04:16:43.083Z,5.19
2023-11-07T04:19:13.215Z,5.17
2023-11-07T04:21:45.166Z,5.11
2023-11-07T04:24:14.368Z,5.12
2023-11-07T04:26:45.276Z,5.17
2023-11-07T04:29:21.470Z,5.11
2023-11-07T04:31:52.181Z,5.10
2023-11-07T04:34:21.032Z,5.09
2023-11-07T04:36:58.525Z,5.01
2023-11-07T04:39:26.717Z,4.97
2023-11-07T04:41:55.205Z,4.96
2023-11-07T04:44:22.765Z,4.88
2023-11-07T04:46:54.404Z,4.90
2023-11-07T04:49:31.604Z,4.93
2023-11-07T04:52:05.660Z,4.94
2023-11-07T04:54:34.665Z,4.95
2023-11-07T04:57:03.239Z,4.96
2023-11-07T04:59:34.252Z,4.94
2023-11-07T05:02:30.273Z,4.93
2023-11-07T05:05:02.652Z,4.83
2023-11-07T05:07:36.268Z,4.87
2023-11-07T05:10:11.598Z,4.89
2023-11-07T05:13:07.306Z,4.89
2023-11-07T05:18:48.582Z,4.93
2023-11-07T05:21:19.257Z,4.93
2023-11-07T05:24:10.266Z,4.96
2023-11-07T05:29:55.498Z,5.06
2023-11-07T05:32:58.406Z,5.10
2023-11-07T05:36:24.203Z,5.14
2023-11-07T05:39:08.380Z,5.17
2023-11-07T05:42:16.557Z,5.26
2023-11-07T05:45:14.369Z,5.29
2023-11-07T05:49:11.664Z,5.33
2023-11-07T05:52:02.634Z,5.34
2023-11-07T05:55:22.687Z,5.36
2023-11-07T05:57:59.323Z,5.42
2023-11-07T06:00:36.300Z,5.42
2023-11-07T06:04:04.064Z,5.47
2023-11-07T06:07:32.152Z,5.59
2023-11-07T06:10:59.351Z,5.63
2023-11-07T06:14:07.067Z,5.78
2023-11-07T06:17:23.313Z,5.87
2023-11-07T06:23:16.968Z,6.07
2023-11-07T06:26:11.831Z,6.15
2023-11-07T06:34:01.350Z,6.42
2023-11-07T06:37:31.579Z,6.51
2023-11-07T06:40:19.333Z,6.60
2023-11-07T06:42:48.355Z,6.70
2023-11-07T06:45:16.428Z,6.78
2023-11-07T06:47:45.367Z,6.89
2023-11-07T06:50:14.935Z,6.94
2023-11-07T06:52:53.758Z,6.85
2023-11-07T06:55:29.412Z,7.12
2023-11-07T06:57:57.944Z,7.28
2023-11-07T07:00:30.764Z,7.34
2023-11-07T07:03:00.188Z,7.45
2023-11-07T07:05:28.684Z,7.46
2023-11-07T07:07:56.926Z,7.58
2023-11-07T07:10:25.122Z,7.72
2023-11-07T07:12:52.743Z,7.83
2023-11-07T07:15:19.953Z,7.92
2023-11-07T07:17:48.028Z,8.01
2023-11-07T07:20:15.366Z,7.97
2023-11-07T07:22:43.744Z,8.19
2023-11-07T07:25:16.978Z,8.31
2023-11-07T07:27:48.631Z,8.42
2023-11-07T07:30:23.561Z,8.44
2023-11-07T07:32:52.492Z,8.67
2023-11-07T07:35:23.718Z,8.71
2023-11-07T07:37:53.826Z,8.87
2023-11-07T07:40:27.660Z,8.95
2023-11-07T07:43:11.226Z,9.05
2023-11-07T07:45:42.192Z,9.17
2023-11-07T07:48:16.660Z,9.29
2023-11-07T07:50:48.060Z,9.42
2023-11-07T07:53:18.525Z,9.50
2023-11-07T07:55:46.042Z,9.64
2023-11-07T07:58:20.557Z,9.76
2023-11-07T08:00:51.076Z,9.93
2023-11-07T08:03:20.447Z,10.06
2023-11-07T08:05:51.921Z,10.22
2023-11-07T08:08:19.687Z,10.40
2023-11-07T08:10:50.184Z,10.53
2023-11-07T08:13:22.548Z,10.67
2023-11-07T08:15:51.483Z,10.81
2023-11-07T08:18:20.830Z,10.94
2023-11-07T08:20:48.254Z,11.12
2023-11-07T08:23:15.941Z,11.25
2023-11-07T08:25:44.342Z,11.45
2023-11-07T08:28:12.756Z,11.64
2023-11-07T08:30:40.161Z,11.73
2023-11-07T08:33:09.664Z,11.85
2023-11-07T08:35:38.163Z,12.01
2023-11-07T08:38:06.277Z,12.17
2023-11-07T08:40:33.448Z,12.28
2023-11-07T08:43:01.279Z,12.40
2023-11-07T08:45:36.030Z,12.57
2023-11-07T08:48:04.923Z,12.71
2023-11-07T08:50:42.720Z,12.83
2023-11-07T08:53:11.349Z,12.99
2023-11-07T08:55:39.329Z,13.13
2023-11-07T08:58:07.054Z,13.29
2023-11-07T09:00:36.064Z,13.43
2023-11-07T09:03:10.192Z,13.60
2023-11-07T09:05:39.400Z,13.80
2023-11-07T09:08:07.597Z,14.02
2023-11-07T09:10:36.776Z,14.23
2023-11-07T09:13:05.797Z,14.52
2023-11-07T09:15:53.617Z,14.92
2023-11-07T09:19:33.989Z,17.50
2023-11-07T09:23:12.400Z,20.44
2023-11-07T09:26:42.790Z,22.38
2023-11-07T09:29:36.346Z,23.97
2023-11-07T09:32:43.701Z,25.30
2023-11-07T09:35:44.916Z,25.88
2023-11-07T09:41:48.702Z,25.48
2023-11-07T09:44:45.517Z,24.44
2023-11-07T09:47:43.973Z,23.75
2023-11-07T09:51:29.758Z,23.09
2023-11-07T09:54:39.192Z,22.25
2023-11-07T09:57:24.284Z,21.99
2023-11-07T10:04:44.539Z,21.68
2023-11-07T10:16:50.315Z,20.87
2023-11-07T10:33:58.665Z,20.41
2023-11-07T10:54:41.538Z,19.54
2023-11-07T10:57:55.979Z,19.68
2023-11-07T11:01:40.281Z,19.79
2023-11-07T11:04:27.334Z,19.86
2023-11-07T11:07:39.862Z,19.81
2023-11-07T11:14:25.104Z,19.61
2023-11-07T11:21:00.810Z,19.41
2023-11-07T11:24:30.285Z,19.33
2023-11-07T11:28:05.267Z,19.19
2023-11-07T11:30:55.646Z,19.09
2023-11-07T11:34:31.244Z,19.08
2023-11-07T11:46:54.469Z,19.23
2023-11-07T11:50:13.245Z,19.24
2023-11-07T11:53:41.520Z,19.27
2023-11-07T11:57:29.381Z,19.10
2023-11-07T12:00:23.882Z,19.00
2023-11-07T12:03:29.780Z,18.93
2023-11-07T12:06:28.205Z,18.96
2023-11-07T12:09:34.394Z,19.01
2023-11-07T12:12:41.096Z,19.06
2023-11-07T12:15:38.087Z,19.08
2023-11-07T12:18:52.762Z,19.12
2023-11-07T12:21:56.696Z,19.12
2023-11-07T12:29:09.141Z,18.95
2023-11-07T12:32:57.245Z,18.86
2023-11-07T12:35:47.365Z,18.77
2023-11-07T12:43:29.036Z,18.77
2023-11-07T12:47:09.197Z,18.64
2023-11-07T12:50:49.859Z,18.59
2023-11-07T12:54:49.799Z,18.58
2023-11-07T12:58:14.104Z,18.56
2023-11-07T13:01:49.117Z,18.51
2023-11-07T13:05:46.023Z,18.39
2023-11-07T13:09:33.398Z,18.31
2023-11-07T13:12:42.895Z,18.23
2023-11-07T13:15:24.579Z,18.16
2023-11-07T13:18:26.221Z,18.17
2023-11-07T13:21:26.613Z,18.14
2023-11-07T13:25:17.161Z,18.04
2023-11-07T13:32:00.342Z,17.97
2023-11-07T13:34:51.642Z,18.00
2023-11-07T13:37:22.169Z,17.99
2023-11-07T13:39:55.422Z,17.95
2023-11-07T13:42:42.751Z,17.94
2023-11-07T13:48:56.934Z,17.89
2023-11-07T13:51:43.205Z,17.86
2023-11-07T13:54:49.381Z,17.84
2023-11-07T13:58:26.223Z,17.79
2023-11-07T14:01:25.769Z,17.65
2023-11-07T14:04:26.119Z,17.61
2023-11-07T14:07:20.526Z,17.51
2023-11-07T14:09:49.092Z,17.43
2023-11-07T14:12:16.672Z,17.43
2023-11-07T14:14:44.011Z,17.35
2023-11-07T14:17:11.542Z,17.25
2023-11-07T14:19:38.785Z,17.20
2023-11-07T14:22:08.283Z,17.12
2023-11-07T14:24:37.194Z,17.06
2023-11-07T14:27:09.277Z,16.98
2023-11-07T14:29:55.191Z,16.91
2023-11-07T14:32:25.190Z,16.82
2023-11-07T14:34:52.840Z,16.75
2023-11-07T14:37:21.828Z,16.68
2023-11-07T14:39:50.123Z,16.57
2023-11-07T14:42:17.827Z,16.49
2023-11-07T14:44:46.712Z,16.41
2023-11-07T14:47:15.666Z,16.30
2023-11-07T14:49:42.817Z,16.19
2023-11-07T14:52:10.367Z,16.13
2023-11-07T14:54:37.548Z,16.02
2023-11-07T14:57:07.555Z,15.97
2023-11-07T14:59:34.995Z,15.87
2023-11-07T15:02:04.114Z,15.77
2023-11-07T15:04:35.655Z,15.67
2023-11-07T15:07:03.227Z,15.61
2023-11-07T15:09:33.224Z,15.57
2023-11-07T15:12:01.335Z,15.57
2023-11-07T15:14:29.881Z,15.52
2023-11-07T15:16:59.168Z,15.47
2023-11-07T15:19:26.425Z,15.46
2023-11-07T15:21:54.248Z,15.38
2023-11-07T15:24:24.138Z,15.34
2023-11-07T15:26:53.098Z,15.22
2023-11-07T15:29:30.552Z,15.12
2023-11-07T15:31:58.010Z,15.03
2023-11-07T15:34:26.163Z,14.91
2023-11-07T15:36:56.765Z,14.83
2023-11-07T15:39:25.837Z,14.66
2023-11-07T15:41:53.429Z,14.51
2023-11-07T15:44:21.378Z,14.37
2023-11-07T15:46:48.961Z,14.34
2023-11-07T15:49:17.393Z,14.29
2023-11-07T15:51:45.197Z,14.20
2023-11-07T15:54:15.192Z,14.18
2023-11-07T15:56:48.441Z,14.16
2023-11-07T15:59:16.263Z,14.15
2023-11-07T16:01:45.710Z,14.10
2023-11-07T16:04:49.989Z,14.10
2023-11-07T16:07:59.858Z,14.14
2023-11-07T16:10:29.082Z,14.13
2023-11-07T16:13:13.874Z,14.08
2023-11-07T16:15:42.301Z,14.03
2023-11-07T16:18:14.055Z,13.90
2023-11-07T16:20:44.095Z,13.83
2023-11-07T16:23:11.863Z,13.69
2023-11-07T16:25:38.962Z,13.57
2023-11-07T16:28:06.728Z,13.44
2023-11-07T16:30:34.142Z,13.38
2023-11-07T16:33:03.060Z,13.52
2023-11-07T16:35:31.560Z,13.52
2023-11-07T16:37:59.148Z,13.52
2023-11-07T16:40:29.117Z,13.53
2023-11-07T16:42:56.804Z,13.50
2023-11-07T16:45:24.529Z,13.54
2023-11-07T16:47:52.566Z,13.59
2023-11-07T16:50:22.058Z,13.53
2023-11-07T16:52:51.378Z,13.54
2023-11-07T16:55:20.070Z,13.47
2023-11-07T16:57:49.110Z,13.25
2023-11-07T17:00:19.970Z,13.00
2023-11-07T17:02:49.151Z,12.92
2023-11-07T17:05:18.689Z,12.88
2023-11-07T17:07:46.849Z,12.88
2023-11-07T17:10:17.137Z,12.97
2023-11-07T17:12:48.474Z,12.99
2023-11-07T17:15:15.790Z,13.06
2023-11-07T17:17:49.440Z,13.08
2023-11-07T17:20:16.690Z,13.03
2023-11-07T17:22:45.186Z,13.02
2023-11-07T17:25:14.695Z,12.93
2023-11-07T17:27:45.169Z,12.97
2023-11-07T17:30:13.260Z,12.91
2023-11-07T17:32:40.934Z,12.86
2023-11-07T17:35:08.545Z,12.81
2023-11-07T17:37:38.756Z,12.75
2023-11-07T17:40:07.882Z,12.70
2023-11-07T17:42:35.508Z,12.60
2023-11-07T17:45:08.337Z,12.52
2023-11-07T17:47:36.215Z,12.43
2023-11-07T17:50:03.653Z,12.34
2023-11-07T17:52:39.089Z,12.21
2023-11-07T17:55:07.424Z,12.10
2023-11-07T17:57:35.030Z,11.96
2023-11-07T18:00:05.096Z,11.95
2023-11-07T18:02:32.764Z,11.89
2023-11-07T18:04:59.983Z,11.73
2023-11-07T18:07:29.949Z,11.60
2023-11-07T18:09:57.243Z,11.51
2023-11-07T18:12:24.899Z,11.42
2023-11-07T18:14:53.286Z,11.33
2023-11-07T18:17:21.634Z,11.30
2023-11-07T18:19:53.951Z,11.25
2023-11-07T18:22:27.947Z,11.22
2023-11-07T18:24:57.210Z,11.24
2023-11-07T18:27:25.474Z,11.24
2023-11-07T18:29:52.710Z,11.32
2023-11-07T18:32:23.167Z,11.36
2023-11-07T18:34:52.569Z,11.35
2023-11-07T18:37:21.182Z,11.36
2023-11-07T18:39:50.449Z,11.29
2023-11-07T18:42:19.480Z,11.34
2023-11-07T18:44:47.557Z,11.33
2023-11-07T18:47:17.846Z,11.39
2023-11-07T18:49:45.204Z,11.37
2023-11-07T19:00:01.672Z,11.23
2023-11-07T19:02:45.424Z,11.12
2023-11-07T19:05:15.091Z,11.05
2023-11-07T19:07:42.638Z,10.99
2023-11-07T19:10:10.285Z,10.98
2023-11-07T19:12:40.263Z,10.98
2023-11-07T19:15:09.352Z,10.93
2023-11-07T19:17:36.893Z,10.88
2023-11-07T19:20:05.341Z,10.84
2023-11-07T19:22:34.310Z,10.77
2023-11-07T19:25:01.723Z,10.65
2023-11-07T19:27:29.659Z,10.75
2023-11-07T19:30:00.495Z,10.89
2023-11-07T19:32:29.399Z,10.83
2023-11-07T19:35:09.588Z,10.87
2023-11-07T19:37:38.953Z,10.91
2023-11-07T19:40:22.741Z,11.00
2023-11-07T19:42:52.526Z,11.03
2023-11-07T19:48:51.649Z,11.23
2023-11-07T19:51:45.994Z,11.36
2023-11-07T19:59:01.064Z,11.72
2023-11-07T20:01:53.915Z,11.84
2023-11-07T20:04:39.290Z,11.90
2023-11-07T20:07:55.953Z,11.93
2023-11-07T20:11:32.194Z,11.89
2023-11-07T20:14:38.381Z,11.73
2023-11-07T20:18:08.458Z,11.73
2023-11-07T20:28:29.905Z,11.54
2023-11-07T20:31:56.878Z,11.54
2023-11-07T20:34:36.149Z,11.56
2023-11-07T20:37:29.839Z,11.55
2023-11-07T20:40:16.279Z,11.48
2023-11-07T20:43:06.124Z,11.51
2023-11-07T20:46:33.784Z,11.43
2023-11-07T20:53:18.698Z,11.38
2023-11-07T20:59:42.693Z,11.45
2023-11-07T21:02:30.777Z,11.43
2023-11-07T21:05:00.281Z,11.61
2023-11-07T21:07:27.831Z,11.61
2023-11-07T21:09:55.568Z,11.56
2023-11-07T21:12:23.038Z,11.52
2023-11-07T21:14:53.785Z,11.49
2023-11-07T21:17:32.127Z,11.53
2023-11-07T21:20:07.816Z,11.52
2023-11-07T21:25:37.939Z,11.56
2023-11-07T21:28:11.199Z,11.48
2023-11-07T21:33:27.674Z,11.35
2023-11-07T21:35:59.386Z,11.34
2023-11-07T21:38:27.277Z,11.28
2023-11-07T21:40:54.437Z,11.34
2023-11-07T21:43:21.977Z,11.33
2023-11-07T21:45:49.057Z,11.30
2023-11-07T21:48:17.251Z,11.30
2023-11-07T21:50:44.790Z,11.29
2023-11-07T21:53:25.660Z,11.34
2023-11-07T21:55:55.023Z,11.30
2023-11-07T21:58:22.958Z,11.32
2023-11-07T22:00:50.111Z,11.34
2023-11-07T22:03:17.763Z,11.34
2023-11-07T22:05:52.591Z,11.33
2023-11-07T22:08:23.358Z,11.18
2023-11-07T22:10:53.056Z,11.29
2023-11-07T22:13:23.449Z,11.14
2023-11-07T22:15:52.167Z,11.19
2023-11-07T22:18:20.169Z,11.11
2023-11-07T22:20:47.725Z,11.06
2023-11-07T22:23:15.500Z,11.11
2023-11-07T22:25:42.548Z,11.10
2023-11-07T22:28:10.628Z,11.11
2023-11-07T22:30:38.799Z,11.03
2023-11-07T22:33:06.797Z,11.07
2023-11-07T22:35:35.727Z,11.06
2023-11-07T22:38:06.152Z,11.05
2023-11-07T22:40:33.242Z,11.01
2023-11-07T22:43:01.474Z,10.98
2023-11-07T22:45:28.757Z,11.00
2023-11-07T22:47:56.523Z,10.99
2023-11-07T22:50:24.949Z,10.95
2023-11-07T22:52:52.492Z,11.00
2023-11-07T22:55:19.617Z,11.01
2023-11-07T22:57:48.504Z,11.08
2023-11-07T23:00:28.844Z,11.10
2023-11-07T23:03:01.176Z,11.08
2023-11-07T23:05:31.669Z,11.19
2023-11-07T23:08:09.895Z,11.15
2023-11-07T23:10:41.546Z,11.19
2023-11-07T23:13:20.691Z,11.16
2023-11-07T23:15:50.140Z,11.21
2023-11-07T23:18:21.356Z,11.18
2023-11-07T23:20:53.663Z,11.13
2023-11-07T23:23:21.899Z,11.20
2023-11-07T23:25:50.458Z,11.12
2023-11-07T23:28:21.440Z,11.21
2023-11-07T23:33:33.976Z,11.22
2023-11-07T23:36:07.590Z,11.22
2023-11-07T23:38:39.340Z,11.21
2023-11-07T23:41:06.925Z,11.11
2023-11-07T23:43:36.834Z,11.13
2023-11-07T23:46:04.631Z,11.15
2023-11-07T23:48:34.640Z,11.14
2023-11-07T23:51:02.171Z,11.11
2023-11-07T23:53:32.490Z,11.10
2023-11-07T23:56:00.308Z,11.08
2023-11-07T23:58:28.960Z,11.08
